Time;durP1;ratioP1;P1;durP2;ratioP2;P2;SDS_P1;SDS_P2;PMS_P1;PMS_P2;Temp;Humidity;BMP_temperature;BMP_pressure;BME280_temperature;BME280_humidity;BME280_pressure;Samples;Min_cycle;Max_cycle;Signal;HPM_P1;HPM_P2
2022/05/31 00:01:27;;;;;;;10.77;6.85;;;;;;;11.41;62.79;101288.53;5068910;28;20031;-88
2022/05/31 00:03:52;;;;;;;11.88;6.00;;;;;;;11.31;62.84;101278.31;5088906;28;20522;-88
2022/05/31 00:06:17;;;;;;;9.70;6.30;;;;;;;11.20;63.20;101276.09;5068669;28;20115;-88
2022/05/31 00:08:43;;;;;;;9.07;6.28;;;;;;;11.13;63.52;101272.78;5085213;28;20485;-88
2022/05/31 00:11:08;;;;;;;6.75;5.63;;;;;;;11.02;63.27;101274.09;5069722;28;20188;-88
2022/05/31 00:13:33;;;;;;;10.15;6.45;;;;;;;10.88;63.45;101271.91;5071098;28;20436;-88
2022/05/31 00:15:59;;;;;;;7.90;6.60;;;;;;;10.82;64.14;101265.06;5081328;28;20035;-88
2022/05/31 00:18:24;;;;;;;10.95;6.35;;;;;;;10.81;63.79;101273.88;5071764;28;20024;-88
2022/05/31 00:20:49;;;;;;;10.98;7.18;;;;;;;10.72;66.91;101269.81;5083238;28;20039;-88
2022/05/31 00:23:15;;;;;;;8.07;6.75;;;;;;;10.61;65.56;101271.94;5066033;28;20027;-88
2022/05/31 00:25:40;;;;;;;8.25;6.13;;;;;;;10.53;65.27;101273.09;5069031;28;20023;-88
2022/05/31 00:28:06;;;;;;;10.65;6.18;;;;;;;10.39;64.69;101265.59;5087774;28;20032;-88
2022/05/31 00:30:31;;;;;;;8.90;6.55;;;;;;;10.36;68.16;101284.22;5068173;28;20712;-88
2022/05/31 00:32:57;;;;;;;9.20;7.07;;;;;;;10.33;65.92;101271.09;5086541;28;20101;-88
2022/05/31 00:35:32;;;;;;;11.80;6.78;;;;;;;10.35;66.13;101283.38;5084975;28;20462;-88
2022/05/31 00:37:58;;;;;;;10.15;6.97;;;;;;;10.41;66.22;101274.38;5071021;28;20039;-88
2022/05/31 00:40:26;;;;;;;9.60;6.57;;;;;;;10.43;67.61;101277.81;5084410;28;20102;-87
2022/05/31 00:42:56;;;;;;;9.25;6.82;;;;;;;10.40;65.51;101273.50;5068733;28;20037;-87
2022/05/31 00:45:44;;;;;;;9.48;6.97;;;;;;;10.52;63.87;101269.59;5082831;28;20491;-87
2022/05/31 00:48:14;;;;;;;9.93;6.43;;;;;;;10.57;65.13;101277.38;5082851;28;20442;-88
2022/05/31 00:50:48;;;;;;;9.75;6.88;;;;;;;10.62;66.03;101268.34;5085403;28;20127;-88
2022/05/31 00:53:21;;;;;;;10.38;7.45;;;;;;;10.63;69.20;101274.50;5069010;28;20036;-88
2022/05/31 00:55:56;;;;;;;11.40;6.70;;;;;;;10.58;65.55;101269.38;5082599;28;20020;-88
2022/05/31 00:58:34;;;;;;;11.10;6.80;;;;;;;10.57;65.02;101270.28;5065688;28;20267;-87
2022/05/31 01:01:04;;;;;;;9.07;6.32;;;;;;;10.57;65.05;101272.94;5087090;28;20028;-88
2022/05/31 01:03:32;;;;;;;11.70;6.72;;;;;;;10.59;64.96;101265.84;5067047;28;20023;-88
2022/05/31 01:05:58;;;;;;;11.23;7.20;;;;;;;10.59;68.16;101270.25;5086476;28;20019;-88
2022/05/31 01:08:23;;;;;;;10.50;6.95;;;;;;;10.54;65.80;101270.41;5067382;28;20020;-88
2022/05/31 01:10:49;;;;;;;10.02;6.22;;;;;;;10.53;65.32;101278.38;5071372;28;20024;-88
2022/05/31 01:13:17;;;;;;;8.68;6.18;;;;;;;10.50;65.88;101275.84;5067938;28;20114;-88
2022/05/31 01:15:47;;;;;;;10.60;7.25;;;;;;;10.37;66.03;101267.44;5063913;28;20040;-88
2022/05/31 01:18:13;;;;;;;9.23;6.53;;;;;;;10.45;65.46;101274.22;5068647;28;20054;-87
2022/05/31 01:20:39;;;;;;;9.20;6.55;;;;;;;10.47;67.20;101275.03;5069277;28;20039;-87
2022/05/31 01:23:26;;;;;;;10.48;7.28;;;;;;;10.53;68.33;101257.22;5087580;28;20040;-87
2022/05/31 01:25:58;;;;;;;9.38;6.97;;;;;;;10.44;69.52;101267.22;5082259;28;20104;-87
2022/05/31 01:28:33;;;;;;;10.75;6.93;;;;;;;10.39;65.88;101265.59;5068665;28;20034;-88
2022/05/31 01:31:11;;;;;;;10.18;6.93;;;;;;;10.33;70.22;101271.09;5083168;28;20367;-88
2022/05/31 01:33:44;;;;;;;10.88;7.57;;;;;;;10.25;67.45;101262.56;5086940;28;20029;-88
2022/05/31 01:36:13;;;;;;;10.23;7.30;;;;;;;10.26;70.84;101256.34;5064318;28;20495;-88
2022/05/31 01:38:44;;;;;;;10.50;6.80;;;;;;;10.29;67.00;101258.91;5067200;28;20039;-88
2022/05/31 01:41:19;;;;;;;8.45;6.38;;;;;;;10.26;69.86;101259.88;5068868;28;20039;-87
2022/05/31 01:43:47;;;;;;;8.98;6.40;;;;;;;10.19;66.56;101255.66;5061469;28;20486;-87
2022/05/31 01:46:19;;;;;;;9.02;6.32;;;;;;;10.17;68.01;101253.06;5080814;28;20059;-87
2022/05/31 01:48:45;;;;;;;10.20;6.72;;;;;;;10.21;68.64;101256.47;5082903;28;20028;-87
2022/05/31 01:51:12;;;;;;;7.90;6.05;;;;;;;10.19;66.49;101253.00;5063051;28;20041;-88
2022/05/31 01:53:38;;;;;;;8.60;6.85;;;;;;;10.15;66.56;101256.66;5060983;28;20021;-88
2022/05/31 01:56:06;;;;;;;9.07;6.45;;;;;;;10.20;70.44;101257.38;5063570;28;20108;-88
2022/05/31 01:58:35;;;;;;;11.65;7.38;;;;;;;10.13;67.17;101269.06;5066504;28;20456;-88
2022/05/31 02:01:04;;;;;;;11.70;7.35;;;;;;;9.86;67.88;101262.84;5062911;28;20025;-87
2022/05/31 02:03:31;;;;;;;10.52;6.72;;;;;;;9.71;68.19;101257.13;5064730;28;20105;-87
2022/05/31 02:05:57;;;;;;;10.82;6.97;;;;;;;9.76;68.27;101254.34;5067330;28;20149;-88
2022/05/31 02:08:24;;;;;;;9.80;6.95;;;;;;;9.77;68.05;101245.50;5064310;28;20044;-88
2022/05/31 02:10:50;;;;;;;8.70;6.70;;;;;;;9.77;66.76;101253.44;5064320;28;20400;-87
2022/05/31 02:13:17;;;;;;;8.90;6.28;;;;;;;9.88;66.83;101253.09;5065659;28;20108;-87
2022/05/31 02:15:43;;;;;;;8.82;6.90;;;;;;;9.89;66.42;101239.00;5064861;28;20029;-87
2022/05/31 02:18:09;;;;;;;7.65;5.85;;;;;;;9.95;65.66;101259.94;5060299;28;20032;-87
2022/05/31 02:20:35;;;;;;;8.20;6.28;;;;;;;10.00;65.45;101249.22;5062897;28;20047;-87
2022/05/31 02:23:01;;;;;;;7.70;6.22;;;;;;;9.95;66.69;101252.88;5067793;28;20028;-87
2022/05/31 02:25:26;;;;;;;9.00;6.70;;;;;;;9.95;66.70;101236.16;5066332;28;20111;-87
2022/05/31 02:27:51;;;;;;;9.70;7.00;;;;;;;9.91;67.39;101242.44;5081635;28;20028;-88
2022/05/31 02:30:17;;;;;;;8.75;6.88;;;;;;;9.78;67.96;101241.94;5061666;28;20393;-87
2022/05/31 02:32:43;;;;;;;8.68;7.10;;;;;;;9.88;66.65;101240.75;5062411;28;20493;-88
2022/05/31 02:35:10;;;;;;;8.05;6.38;;;;;;;9.96;66.72;101235.25;5047019;28;20120;-87
2022/05/31 02:37:36;;;;;;;9.15;6.75;;;;;;;10.00;66.65;101236.03;5060082;28;20078;-87
2022/05/31 02:40:01;;;;;;;8.05;6.78;;;;;;;10.05;67.05;101231.47;5063680;28;20107;-87
2022/05/31 02:42:27;;;;;;;11.93;7.13;;;;;;;10.14;67.52;101239.09;5062207;28;20559;-87
2022/05/31 02:44:53;;;;;;;8.23;6.75;;;;;;;10.20;66.70;101238.88;5068119;28;20391;-87
2022/05/31 02:47:19;;;;;;;9.13;7.18;;;;;;;10.27;71.80;101226.38;5062359;28;20119;-87
2022/05/31 02:49:45;;;;;;;9.55;6.47;;;;;;;10.28;67.05;101238.69;5069598;28;20037;-87
2022/05/31 02:52:11;;;;;;;10.63;7.32;;;;;;;10.27;67.18;101229.88;5083365;28;20451;-87
2022/05/31 02:54:36;;;;;;;9.45;6.95;;;;;;;10.34;68.71;101239.31;5072747;28;20123;-87
2022/05/31 02:57:02;;;;;;;9.50;7.28;;;;;;;10.32;66.18;101235.88;5072531;28;20266;-88
2022/05/31 02:59:27;;;;;;;8.95;6.35;;;;;;;10.36;66.24;101234.88;5090240;28;20038;-88
2022/05/31 03:01:53;;;;;;;7.45;6.63;;;;;;;10.36;67.25;101226.94;5067634;28;20031;-87
2022/05/31 03:04:19;;;;;;;6.90;6.15;;;;;;;10.40;68.41;101230.34;5091277;28;20115;-88
2022/05/31 03:06:44;;;;;;;7.28;6.22;;;;;;;10.43;70.33;101230.25;5089067;28;21360;-88
2022/05/31 03:09:10;;;;;;;8.90;6.55;;;;;;;10.34;66.82;101225.25;5072898;28;20067;-88
2022/05/31 03:11:44;;;;;;;9.60;6.85;;;;;;;10.39;71.50;101231.25;5072288;28;20027;-88
2022/05/31 03:14:20;;;;;;;7.72;6.47;;;;;;;10.30;67.75;101221.84;5074755;28;20402;-87
2022/05/31 03:16:52;;;;;;;8.48;6.25;;;;;;;10.34;67.66;101230.53;5068882;28;20121;-87
2022/05/31 03:19:24;;;;;;;7.95;6.50;;;;;;;10.31;68.09;101217.44;5052173;28;20027;-87
2022/05/31 03:22:01;;;;;;;8.17;6.17;;;;;;;10.38;67.68;101221.59;5074647;28;20055;-88
2022/05/31 03:24:35;;;;;;;9.50;6.68;;;;;;;10.42;70.78;101228.50;5070099;28;20059;-87
2022/05/31 03:27:05;;;;;;;8.07;6.55;;;;;;;10.43;68.13;101224.94;5065449;28;20126;-87
2022/05/31 03:29:31;;;;;;;10.50;7.03;;;;;;;10.45;67.15;101229.28;5069492;28;20028;-87
2022/05/31 03:31:56;;;;;;;9.65;6.65;;;;;;;10.45;67.24;101226.63;5087373;28;20042;-87
2022/05/31 03:34:21;;;;;;;11.30;6.97;;;;;;;10.40;67.99;101217.16;5067922;28;20036;-87
2022/05/31 03:36:47;;;;;;;10.27;6.60;;;;;;;10.47;68.16;101222.16;5072195;28;20036;-87
2022/05/31 03:39:12;;;;;;;11.68;6.93;;;;;;;10.50;67.27;101215.06;5069768;28;20105;-87
2022/05/31 03:41:38;;;;;;;9.27;6.32;;;;;;;10.52;67.55;101214.06;5066738;28;20110;-87
2022/05/31 03:44:04;;;;;;;7.20;6.38;;;;;;;10.55;67.26;101223.69;5072392;28;20055;-87
2022/05/31 03:46:30;;;;;;;9.88;6.07;;;;;;;10.54;67.30;101216.66;5072296;28;20487;-87
2022/05/31 03:48:55;;;;;;;12.57;8.02;;;;;;;10.56;67.77;101215.69;5070588;28;20028;-87
2022/05/31 03:51:20;;;;;;;9.80;6.18;;;;;;;10.50;68.35;101221.19;5074825;28;20052;-87
2022/05/31 03:53:46;;;;;;;9.95;6.93;;;;;;;10.42;68.72;101216.16;5083813;28;20024;-87
2022/05/31 03:56:12;;;;;;;8.98;6.40;;;;;;;10.49;68.02;101219.44;5067081;28;20012;-87
2022/05/31 03:58:40;;;;;;;9.90;5.97;;;;;;;10.53;68.45;101223.72;5069828;28;20107;-87
2022/05/31 04:01:05;;;;;;;13.32;6.47;;;;;;;10.52;68.24;101213.22;5068955;28;20097;-88
2022/05/31 04:03:31;;;;;;;10.75;6.70;;;;;;;10.54;67.82;101219.28;5070496;28;20032;-87
2022/05/31 04:05:56;;;;;;;8.13;6.20;;;;;;;10.56;66.93;101212.19;5071348;28;20219;-87
2022/05/31 04:08:22;;;;;;;8.38;6.60;;;;;;;10.53;67.79;101215.78;5076625;28;20019;-87
2022/05/31 04:10:48;;;;;;;10.18;6.82;;;;;;;10.49;69.80;101222.09;5068626;28;20400;-87
2022/05/31 04:13:15;;;;;;;11.30;7.30;;;;;;;10.40;68.65;101222.44;5066115;28;20021;-87
2022/05/31 04:15:41;;;;;;;11.98;6.72;;;;;;;10.23;69.10;101209.72;5062301;28;20051;-87
2022/05/31 04:18:08;;;;;;;9.05;6.75;;;;;;;10.21;69.30;101207.16;5072377;28;20070;-87
2022/05/31 04:20:33;;;;;;;9.60;6.70;;;;;;;10.34;69.54;101215.53;5071032;28;20546;-87
2022/05/31 04:25:45;;;;;;;9.48;6.65;;;;;;;10.59;67.84;101215.59;5089030;28;20513;-87
2022/05/31 04:28:10;;;;;;;8.77;6.60;;;;;;;10.64;68.29;101208.38;5075054;28;20410;-87
2022/05/31 04:30:37;;;;;;;11.57;7.00;;;;;;;10.62;68.04;101209.31;5073429;28;20020;-88
2022/05/31 04:33:03;;;;;;;10.82;7.20;;;;;;;10.56;68.61;101220.97;5064208;28;20126;-87
2022/05/31 04:35:28;;;;;;;9.25;6.70;;;;;;;10.66;68.20;101218.88;5083065;28;20398;-87
2022/05/31 04:37:54;;;;;;;11.57;7.03;;;;;;;10.75;67.62;101223.84;5086157;28;20016;-88
2022/05/31 04:40:19;;;;;;;11.82;8.18;;;;;;;10.84;70.80;101218.25;5084737;28;20036;-87
2022/05/31 04:42:45;;;;;;;9.00;7.30;;;;;;;10.84;68.45;101217.38;5065071;28;20497;-87
2022/05/31 04:45:10;;;;;;;8.43;7.35;;;;;;;10.79;68.55;101216.69;5067190;28;20041;-87
2022/05/31 04:47:35;;;;;;;10.48;6.65;;;;;;;10.69;68.20;101214.38;5087115;28;20032;-87
2022/05/31 04:50:01;;;;;;;8.73;7.50;;;;;;;10.66;69.39;101206.53;5085813;28;20012;-87
2022/05/31 04:52:26;;;;;;;12.52;8.32;;;;;;;10.62;69.25;101202.25;5086547;28;20048;-88
2022/05/31 04:54:52;;;;;;;11.52;8.00;;;;;;;10.67;69.63;101213.53;5081469;28;20294;-87
2022/05/31 04:57:18;;;;;;;15.07;8.30;;;;;;;10.73;69.45;101205.41;5085443;28;20020;-87
2022/05/31 04:59:45;;;;;;;10.52;7.30;;;;;;;10.78;68.19;101191.16;5066647;28;20028;-87
2022/05/31 05:02:11;;;;;;;12.02;7.45;;;;;;;10.90;68.94;101202.16;5069577;28;20286;-88
2022/05/31 05:04:36;;;;;;;10.63;8.43;;;;;;;11.02;69.24;101203.50;5081914;28;20081;-87
2022/05/31 05:07:02;;;;;;;12.32;8.52;;;;;;;11.11;68.81;101202.31;5071070;28;20032;-88
2022/05/31 05:09:28;;;;;;;12.75;7.80;;;;;;;11.17;67.21;101195.00;5083944;28;20032;-87
2022/05/31 05:11:53;;;;;;;13.23;8.52;;;;;;;11.21;68.49;101196.63;5065472;28;20024;-88
2022/05/31 05:14:18;;;;;;;11.77;8.20;;;;;;;11.23;70.15;101192.13;5064489;28;20038;-87
2022/05/31 05:16:44;;;;;;;13.43;8.52;;;;;;;11.20;69.21;101192.25;5084361;28;20470;-88
2022/05/31 05:19:09;;;;;;;12.43;8.40;;;;;;;11.28;68.89;101196.38;5070356;28;20036;-87
2022/05/31 05:21:34;;;;;;;11.73;8.25;;;;;;;11.32;67.26;101204.16;5087629;28;20266;-88
2022/05/31 05:24:00;;;;;;;11.48;8.27;;;;;;;11.37;68.61;101199.53;5085642;28;20032;-88
2022/05/31 05:26:25;;;;;;;15.32;8.32;;;;;;;11.39;68.39;101188.91;5074319;28;20069;-88
2022/05/31 05:31:35;;;;;;;14.52;9.43;;;;;;;11.39;68.70;101202.16;5086300;28;20051;-88
2022/05/31 05:34:03;;;;;;;12.07;8.52;;;;;;;11.42;68.57;101207.31;5085133;28;20059;-88
2022/05/31 05:36:29;;;;;;;16.52;9.38;;;;;;;11.48;69.30;101209.75;5082840;28;20413;-88
2022/05/31 05:38:55;;;;;;;12.25;8.20;;;;;;;11.53;67.71;101202.50;5085397;28;20027;-88
2022/05/31 05:41:22;;;;;;;12.00;8.85;;;;;;;11.61;68.22;101196.88;5067819;28;20399;-88
2022/05/31 05:43:48;;;;;;;13.85;9.55;;;;;;;11.74;67.67;101195.47;5068871;28;20502;-88
2022/05/31 05:46:18;;;;;;;12.25;9.18;;;;;;;11.82;69.19;101198.72;5062800;28;20123;-88
2022/05/31 05:48:45;;;;;;;13.80;9.10;;;;;;;11.87;67.61;101207.34;5071233;28;20028;-88
2022/05/31 05:51:17;;;;;;;15.45;8.70;;;;;;;12.04;67.73;101211.13;5066832;28;20059;-88
2022/05/31 05:53:43;;;;;;;12.68;9.57;;;;;;;12.07;67.02;101198.59;5078237;28;20027;-88
2022/05/31 05:56:09;;;;;;;12.07;8.98;;;;;;;12.19;67.18;101200.75;5068927;28;20020;-88
2022/05/31 05:58:34;;;;;;;12.15;8.93;;;;;;;12.30;67.76;101202.09;5068252;28;20615;-88
2022/05/31 06:01:01;;;;;;;12.55;8.88;;;;;;;12.38;65.53;101206.16;5065379;28;20032;-88
2022/05/31 06:03:32;;;;;;;9.85;8.48;;;;;;;12.48;65.99;101207.50;5070630;28;20082;-88
2022/05/31 06:05:59;;;;;;;14.48;9.80;;;;;;;12.56;65.10;101199.22;5065039;28;20479;-88
2022/05/31 06:08:30;;;;;;;11.70;8.40;;;;;;;12.70;64.32;101201.28;5066281;28;20028;-88
2022/05/31 06:11:05;;;;;;;11.90;8.73;;;;;;;12.72;64.48;101202.94;5070116;28;20028;-87
2022/05/31 06:13:40;;;;;;;13.38;9.18;;;;;;;12.69;64.68;101196.91;5077544;28;20470;-88
2022/05/31 06:16:08;;;;;;;13.63;9.48;;;;;;;12.73;64.99;101198.50;5058705;28;20032;-88
2022/05/31 06:18:39;;;;;;;12.88;9.57;;;;;;;12.72;64.83;101202.06;5087456;28;20027;-88
2022/05/31 06:21:06;;;;;;;16.75;9.68;;;;;;;12.74;65.58;101198.44;5076847;28;20032;-88
2022/05/31 06:23:34;;;;;;;15.55;10.52;;;;;;;12.74;65.97;101201.09;5090429;28;20412;-88
2022/05/31 06:26:00;;;;;;;12.23;9.23;;;;;;;12.82;66.25;101199.88;5088809;28;20071;-88
2022/05/31 06:28:25;;;;;;;12.63;10.43;;;;;;;12.83;65.79;101191.88;5069091;28;20098;-88
2022/05/31 06:30:50;;;;;;;15.02;9.70;;;;;;;12.94;66.40;101188.72;5082965;28;20030;-88
2022/05/31 06:33:16;;;;;;;10.57;9.30;;;;;;;13.02;65.63;101191.91;5063620;28;20016;-88
2022/05/31 06:35:41;;;;;;;11.55;9.82;;;;;;;13.14;64.97;101191.34;5064599;28;20028;-88
2022/05/31 06:38:07;;;;;;;14.88;10.43;;;;;;;13.21;64.87;101197.25;5086031;28;20024;-87
2022/05/31 06:40:32;;;;;;;15.35;10.65;;;;;;;13.43;64.36;101200.69;5069880;28;20162;-88
2022/05/31 06:42:58;;;;;;;14.95;10.13;;;;;;;13.58;64.12;101206.22;5066126;28;20032;-88
2022/05/31 06:45:24;;;;;;;17.13;10.27;;;;;;;13.71;64.81;101196.75;5066110;28;20028;-88
2022/05/31 06:47:49;;;;;;;13.80;10.55;;;;;;;13.82;62.61;101207.72;5077959;28;20090;-88
2022/05/31 06:50:14;;;;;;;13.63;10.32;;;;;;;13.89;64.51;101205.59;5069649;28;20651;-88
2022/05/31 06:58:08;;;;;;;11.38;8.68;;;;;;;14.30;59.39;101201.78;5080001;28;20176;-89
2022/05/31 07:00:34;;;;;;;12.52;8.43;;;;;;;14.28;59.98;101203.69;5063721;28;20062;-89
2022/05/31 07:02:59;;;;;;;13.10;8.65;;;;;;;14.18;59.20;101194.44;5070765;28;20475;-90
2022/05/31 07:05:26;;;;;;;12.85;8.40;;;;;;;14.15;59.00;101196.38;5077039;28;20089;-90
2022/05/31 07:07:52;;;;;;;14.27;9.13;;;;;;;14.16;60.76;101204.28;5089290;28;20020;-87
2022/05/31 07:10:18;;;;;;;14.38;8.55;;;;;;;14.35;60.35;101204.22;5087574;28;20028;-87
2022/05/31 07:12:43;;;;;;;13.52;7.88;;;;;;;14.47;60.45;101200.09;5084345;28;20081;-87
2022/05/31 07:15:09;;;;;;;9.93;6.28;;;;;;;14.72;56.97;101199.72;5085366;28;20020;-87
2022/05/31 07:17:35;;;;;;;8.52;6.32;;;;;;;14.98;55.43;101193.91;5072235;28;20069;-87
2022/05/31 07:20:01;;;;;;;6.45;5.32;;;;;;;15.23;55.27;101195.25;5083024;28;20028;-87
2022/05/31 07:22:27;;;;;;;8.32;5.57;;;;;;;15.66;54.25;101192.94;5064541;28;20027;-88
2022/05/31 07:24:52;;;;;;;8.00;6.35;;;;;;;16.05;54.58;101198.69;5083521;28;20040;-88
2022/05/31 07:27:18;;;;;;;8.68;5.75;;;;;;;16.37;51.76;101197.75;5076778;28;20016;-88
2022/05/31 07:29:43;;;;;;;8.93;5.53;;;;;;;16.58;52.38;101185.81;5083313;28;20533;-90
2022/05/31 07:32:08;;;;;;;7.78;5.75;;;;;;;16.97;49.82;101179.03;5068804;28;20449;-89
2022/05/31 07:34:34;;;;;;;7.95;5.82;;;;;;;17.35;49.66;101190.03;5068977;28;20395;-89
2022/05/31 07:37:00;;;;;;;8.65;5.40;;;;;;;17.62;48.32;101194.56;5066724;28;20127;-89
2022/05/31 07:39:26;;;;;;;7.10;5.18;;;;;;;17.69;47.39;101199.44;5088341;28;20028;-89
2022/05/31 07:41:54;;;;;;;7.35;5.38;;;;;;;17.78;50.05;101196.19;5086186;28;20386;-89
2022/05/31 07:44:19;;;;;;;7.47;5.32;;;;;;;17.79;48.96;101194.38;5072640;28;20028;-89
2022/05/31 07:46:45;;;;;;;6.05;5.28;;;;;;;17.90;49.33;101193.69;5060161;28;20177;-89
2022/05/31 07:49:10;;;;;;;6.72;5.13;;;;;;;18.27;47.50;101192.97;5086575;28;20089;-89
2022/05/31 07:51:35;;;;;;;6.13;5.50;;;;;;;18.83;44.62;101182.06;5083220;28;20604;-89
2022/05/31 07:54:01;;;;;;;7.70;5.00;;;;;;;19.32;43.16;101182.16;5088717;28;20028;-89
2022/05/31 07:56:28;;;;;;;8.35;5.50;;;;;;;20.11;44.19;101185.41;5085494;28;20350;-88
2022/05/31 07:58:53;;;;;;;7.10;5.05;;;;;;;20.28;43.13;101179.59;5063715;28;20016;-88
2022/05/31 08:01:25;;;;;;;6.80;4.90;;;;;;;20.40;42.15;101180.50;5083488;28;20054;-89
2022/05/31 08:03:52;;;;;;;7.35;5.65;;;;;;;20.51;42.62;101183.25;5082789;28;20475;-88
2022/05/31 08:06:20;;;;;;;8.82;5.28;;;;;;;20.78;43.69;101185.66;5071168;28;20605;-88
2022/05/31 08:08:45;;;;;;;7.20;5.30;;;;;;;20.54;41.71;101174.97;5069444;28;20421;-87
2022/05/31 08:11:18;;;;;;;8.88;5.30;;;;;;;20.68;43.32;101176.59;5074533;28;20016;-88
2022/05/31 08:13:45;;;;;;;6.95;5.63;;;;;;;20.98;43.12;101169.78;5083704;28;20071;-89
2022/05/31 08:16:12;;;;;;;6.78;5.53;;;;;;;20.64;41.78;101159.84;5084984;28;20035;-88
2022/05/31 08:18:39;;;;;;;10.05;5.90;;;;;;;21.41;41.77;101182.56;5084536;28;20024;-88
2022/05/31 08:21:13;;;;;;;8.40;6.35;;;;;;;21.82;40.72;101172.00;5082289;28;20044;-88
2022/05/31 08:23:39;;;;;;;7.22;6.00;;;;;;;22.45;40.03;101172.16;5083231;28;20097;-88
2022/05/31 08:26:05;;;;;;;6.45;4.53;;;;;;;23.02;37.70;101165.44;5067569;28;20139;-88
2022/05/31 08:28:31;;;;;;;5.57;5.07;;;;;;;22.92;35.28;101159.13;5085870;28;20098;-88
2022/05/31 08:30:59;;;;;;;6.32;5.32;;;;;;;23.27;36.52;101160.56;5080619;28;20235;-88
2022/05/31 08:33:25;;;;;;;8.10;5.47;;;;;;;23.27;36.36;101163.25;5084036;28;20024;-88
2022/05/31 08:35:51;;;;;;;7.32;4.85;;;;;;;23.35;36.10;101153.50;5080092;28;20376;-88
2022/05/31 08:38:16;;;;;;;6.90;5.07;;;;;;;23.77;35.46;101158.75;5088869;28;20024;-87
2022/05/31 08:41:37;;;;;;;6.10;5.50;;;;;;;23.76;36.57;101150.81;5079134;28;20539;-88
2022/05/31 08:44:11;;;;;;;7.25;5.22;;;;;;;24.02;36.12;101154.69;5052048;28;20061;-87
2022/05/31 08:46:39;;;;;;;5.72;4.45;;;;;;;24.08;33.93;101161.38;5082629;28;20066;-87
2022/05/31 08:49:13;;;;;;;8.43;4.70;;;;;;;23.95;35.00;101156.25;5073666;28;20035;-87
2022/05/31 08:51:53;;;;;;;5.47;4.78;;;;;;;23.48;33.93;101155.97;5064706;28;20040;-87
2022/05/31 08:57:17;;;;;;;5.47;4.80;;;;;;;22.56;36.16;101157.75;5085054;28;20127;-89
2022/05/31 09:00:04;;;;;;;6.05;5.07;;;;;;;21.96;38.75;101173.50;5087579;28;20027;-88
2022/05/31 09:02:35;;;;;;;6.00;4.60;;;;;;;21.80;39.02;101170.41;5067343;28;20051;-88
2022/05/31 09:05:04;;;;;;;6.75;4.72;;;;;;;22.54;37.48;101160.59;5079126;28;20379;-87
2022/05/31 09:08:01;;;;;;;7.07;4.82;;;;;;;22.94;37.83;101165.25;5066011;28;20030;-87
2022/05/31 09:10:31;;;;;;;8.00;5.47;;;;;;;22.88;37.58;101154.97;5074192;28;20041;-87
2022/05/31 09:13:34;;;;;;;7.22;5.28;;;;;;;22.65;39.13;101157.81;5057574;28;20032;-88
2022/05/31 09:16:09;;;;;;;6.22;5.50;;;;;;;22.61;36.67;101158.19;5059154;28;20050;-87
2022/05/31 09:18:42;;;;;;;5.57;5.07;;;;;;;22.55;36.14;101154.19;5086008;28;20569;-87
2022/05/31 09:21:40;;;;;;;5.55;5.05;;;;;;;22.35;37.95;101168.53;5085346;28;20443;-89
2022/05/31 09:24:12;;;;;;;6.90;5.53;;;;;;;21.20;38.51;101159.06;5072349;28;20376;-89
2022/05/31 09:27:05;;;;;;;7.45;5.07;;;;;;;21.01;38.85;101161.50;5082593;28;20552;-89
2022/05/31 09:29:42;;;;;;;8.25;4.30;;;;;;;20.91;36.30;101163.22;5085495;28;20118;-90
2022/05/31 09:32:44;;;;;;;4.32;4.00;;;;;;;21.47;38.85;101166.78;5081448;28;20037;-89
2022/05/31 09:35:44;;;;;;;5.82;4.53;;;;;;;21.94;38.34;101169.25;5066855;28;20085;-88
2022/05/31 09:38:38;;;;;;;6.32;4.03;;;;;;;22.79;37.73;101163.84;5071814;28;20043;-88
2022/05/31 09:41:25;;;;;;;6.45;4.57;;;;;;;22.64;37.72;101169.59;5083047;28;20155;-89
2022/05/31 09:44:04;;;;;;;6.63;5.18;;;;;;;22.78;37.68;101151.38;5082610;28;20102;-88
2022/05/31 09:46:58;;;;;;;8.00;5.22;;;;;;;22.93;36.85;101144.66;5084399;28;20060;-87
2022/05/31 09:49:30;;;;;;;7.80;4.90;;;;;;;22.99;35.73;101157.63;5084239;28;20074;-87
2022/05/31 09:51:55;;;;;;;7.43;5.67;;;;;;;22.85;38.10;101145.31;5065060;28;20055;-88
2022/05/31 09:57:14;;;;;;;6.45;5.28;;;;;;;23.33;36.62;101149.25;5083066;28;20051;-88
2022/05/31 09:59:52;;;;;;;7.05;6.03;;;;;;;23.41;35.46;101152.13;5068700;28;20433;-89
2022/05/31 10:02:23;;;;;;;6.28;5.05;;;;;;;23.79;34.40;101162.19;5064856;28;20139;-88
2022/05/31 10:04:49;;;;;;;6.13;4.80;;;;;;;23.86;33.54;101154.38;5083518;28;20480;-89
2022/05/31 10:07:33;;;;;;;6.18;5.50;;;;;;;24.05;34.59;101153.53;5082153;28;20028;-88
2022/05/31 10:10:15;;;;;;;5.72;5.10;;;;;;;24.54;34.07;101144.47;5069924;28;20028;-88
2022/05/31 10:12:54;;;;;;;5.57;4.75;;;;;;;25.09;33.43;101144.63;5063452;28;20020;-89
2022/05/31 10:15:45;;;;;;;6.15;5.55;;;;;;;24.04;34.10;101139.19;5081495;28;20046;-89
2022/05/31 10:18:22;;;;;;;6.70;5.35;;;;;;;23.65;34.80;101144.53;5084414;28;20483;-88
2022/05/31 10:20:55;;;;;;;7.03;4.88;;;;;;;23.87;36.38;101147.97;5080557;28;20217;-90
2022/05/31 10:23:23;;;;;;;5.60;5.07;;;;;;;24.55;33.08;101148.00;5080677;28;20035;-89
2022/05/31 10:25:52;;;;;;;5.55;4.53;;;;;;;25.06;33.38;101141.34;5082931;28;20024;-88
2022/05/31 10:28:40;;;;;;;6.07;5.45;;;;;;;25.15;34.06;101157.56;5083798;28;20284;-89
2022/05/31 10:31:29;;;;;;;5.75;5.10;;;;;;;25.16;33.73;101139.47;5083052;28;20073;-90
2022/05/31 10:33:58;;;;;;;5.60;4.85;;;;;;;25.15;31.77;101133.19;5078273;28;20020;-89
2022/05/31 10:36:27;;;;;;;6.22;5.10;;;;;;;24.80;32.23;101147.38;5060359;28;20031;-89
2022/05/31 10:38:53;;;;;;;6.55;5.30;;;;;;;24.24;33.95;101141.88;5079596;28;20027;-89
2022/05/31 10:41:28;;;;;;;7.38;5.30;;;;;;;23.77;34.85;101152.50;5068865;28;20478;-90
2022/05/31 10:44:03;;;;;;;6.50;4.78;;;;;;;23.49;34.71;101148.72;5062375;28;20541;-89
2022/05/31 10:46:34;;;;;;;6.05;5.45;;;;;;;23.11;35.75;101139.50;5063247;28;20032;-89
2022/05/31 10:49:14;;;;;;;6.38;4.95;;;;;;;22.83;36.25;101132.94;5066393;28;20017;-89
2022/05/31 10:52:02;;;;;;;6.57;5.60;;;;;;;22.12;36.71;101124.69;5083608;28;20125;-89
2022/05/31 10:54:49;;;;;;;7.10;5.10;;;;;;;22.13;39.16;101140.69;5065234;28;20116;-89
2022/05/31 10:57:27;;;;;;;7.43;5.32;;;;;;;22.13;37.73;101139.84;5065580;28;20024;-89
2022/05/31 11:00:15;;;;;;;6.10;5.25;;;;;;;21.97;37.66;101126.78;5075497;28;20032;-88
2022/05/31 11:02:56;;;;;;;6.65;5.18;;;;;;;22.07;37.94;101125.03;5085743;28;20055;-89
2022/05/31 11:05:58;;;;;;;7.25;5.70;;;;;;;22.19;37.03;101135.78;5069002;28;20391;-88
2022/05/31 11:11:48;;;;;;;7.40;5.50;;;;;;;21.59;38.44;101135.31;5092356;28;20402;-89
2022/05/31 11:14:30;;;;;;;7.75;6.13;;;;;;;21.53;37.88;101134.00;5069940;28;20059;-89
2022/05/31 11:17:15;;;;;;;6.75;5.18;;;;;;;21.22;38.74;101140.97;5084381;28;20030;-89
2022/05/31 11:19:54;;;;;;;7.40;5.57;;;;;;;21.10;38.83;101147.31;5078345;28;20039;-89
2022/05/31 11:22:37;;;;;;;7.20;5.55;;;;;;;20.83;39.24;101140.47;5089752;28;20032;-89
2022/05/31 11:25:24;;;;;;;6.95;5.57;;;;;;;20.75;38.74;101152.78;5066064;28;20031;-89
2022/05/31 11:28:27;;;;;;;10.32;6.20;;;;;;;20.71;39.20;101156.72;5070447;28;20062;-89
2022/05/31 11:30:58;;;;;;;7.25;4.88;;;;;;;20.63;41.45;101154.59;5088784;28;20047;-90
2022/05/31 11:33:24;;;;;;;8.52;5.88;;;;;;;20.14;41.62;101160.97;5069410;28;20027;-89
2022/05/31 11:35:59;;;;;;;8.98;6.47;;;;;;;19.98;42.27;101161.28;5064000;28;20376;-90
2022/05/31 11:38:39;;;;;;;8.25;5.45;;;;;;;19.91;42.67;101164.53;5085520;28;20032;-91
2022/05/31 11:41:22;;;;;;;9.68;5.78;;;;;;;19.73;42.54;101153.34;5078283;28;20059;-88
2022/05/31 11:44:02;;;;;;;13.32;5.40;;;;;;;19.69;42.91;101158.09;5087078;28;20024;-89
2022/05/31 11:46:43;;;;;;;5.10;3.60;;;;;;;19.61;40.08;101163.16;5087421;28;20020;-89
2022/05/31 11:49:27;;;;;;;5.80;3.60;;;;;;;19.62;40.41;101156.81;5059720;28;20085;-89
2022/05/31 11:52:32;;;;;;;6.15;4.40;;;;;;;19.73;40.38;101158.72;5082447;28;20087;-90
2022/05/31 11:55:26;;;;;;;6.35;4.03;;;;;;;19.76;39.79;101161.16;5061063;28;20118;-89
2022/05/31 11:58:16;;;;;;;7.57;3.72;;;;;;;19.94;38.87;101153.59;5067845;28;20722;-89